AirNav   TITAN Aviation Fuels
 
 1422 users online  

6KS4 Bussen Airport
Sharon Springs, Kansas, USA

GOING TO SHARON SPRINGS?


FAA INFORMATION EFFECTIVE 02 DECEMBER 2021

Location

FAA Identifier: 6KS4
Lat/Long: 38-54-18.3750N 101-46-58.6950W
38-54.306250N 101-46.978250W
38.9051042,-101.7829708
(estimated)
Elevation: 3475 ft. / 1059 m (estimated)
Variation: 09E (1985)
From city: 2 miles NW of SHARON SPRINGS, KS
Time zone: UTC -7 (UTC -6 during Daylight Saving Time)
Zip code: 67758

Airport Operations

Airport use: Private use. Permission required prior to landing
Activation date: 02/1972
Control tower: no
ARTCC: DENVER CENTER
FSS: WICHITA FLIGHT SERVICE STATION
Attendance: UNATNDD
Wind indicator: yes
Segmented circle: no

Nearby radio navigation aids

VOR radial/distance  VOR name  Freq  Var
GLDr176/29.3GOODLAND VORTAC115.1012E

 
NDB name  Hdg/Dist  Freq  Var  ID
KIT CARSON125/31.020906EITR .. - .-.

Airport Services

Airframe service: NONE
Powerplant service: NONE

Runway Information

Runway 14/32

Dimensions: 3003 x 88 ft. / 915 x 27 m
Surface: asphalt
RUNWAY 14  RUNWAY 32
Latitude: 38-54.497500N38-54.115000N
Longitude: 101-47.179000W101-46.777500W
Elevation: 3474.0 ft.3468.0 ft.
Traffic pattern: leftleft

Airport Ownership and Management from official FAA records

Ownership: Privately-owned
Owner: HELENA AGRI-ENTERPRISES, LLC
1595 US HWY 40
SHARON SPRINGS, KS 67758
Phone 785-852-5299
Manager: HELENA AGRI-ENTERPRISES, LLC
1595 US HWY 40
SHARON SPRINGS, KS 67758
Phone 785-852-5299

Airport Operational Statistics

Aircraft based on the field: 1
Single engine airplanes: 1
    

Additional Remarks

FOR CD CTC DENVER ARTCC AT 303-651-4257.

Instrument Procedures

There are no published instrument procedures at 6KS4.

Some nearby airports with instrument procedures:

5K2 - Tribune Municipal Airport (27 nm S)
KGLD - Renner Field (Goodland Municipal Airport) (28 nm N)
KITR - Kit Carson County Airport (31 nm NW)
3K7 - Mark Hoard Memorial Airport (34 nm SE)
KCBK - Shalz Field Airport (46 nm NE)
 
Loc | Ops | Rwys | IFR | FBO | Links
Com | Nav | Svcs | Stats | Notes

AirBoss

 
Area around 6KS4 (Bussen Airport)
 
Road maps at: MapQuest Bing Google
 
Aerial photo
No photo
 
Sectional chart

 
Airport distance calculator
Flying to Bussen Airport? Find the distance to fly.

From to 6KS4

Sunrise and sunset
Times for 03-Dec-2021
 Local
(UTC-7)
 Zulu
(UTC)
Morning civil twilight06:2013:20
Sunrise06:5013:50
Sunset16:2423:24
Evening civil twilight16:5423:54

Current date and time
Zulu (UTC)  03-Dec-2021 18:26:20
Local (UTC-7)  03-Dec-2021 11:26:20
 
METAR
KGLD 
28nm N 
031753Z AUTO 03012KT 10SM CLR 12/M02 A3014 RMK AO2 SLP199 T01221022 10122 20033 50007
KITR 
31nm NW 
031753Z AUTO 01012KT 10SM CLR 12/M03 A3017 RMK AO2 SLP205 T01171028 10117 20033 50006
KCBK 
47nm NE 
031815Z AUTO 02014KT 10SM CLR 13/M01 A3013 RMK AO2 T01351014
KOEL 
47nm E 
031755Z AUTO 04018G24KT 10SM CLR 14/M03 A3010 RMK AO1 T01361035 10136 20057
KTQK 
49nm SE 
031815Z AUTO 04022G28KT 10SM CLR 15/00 A3009 RMK AO2 T01491001
TAF
KGLD 
28nm N 
031723Z 0318/0418 03014KT P6SM SKC FM032300 08007KT P6SM SKC FM040700 15006KT P6SM FEW250 FM041400 18013G20KT P6SM SKC
NOTAMs
Click for the latest NOTAMs
NOTAMs are issued by the DoD/FAA and will open in a separate window not controlled by AirNav.

 

 
 

Would you like to see your business listed on this page?

 If your business provides an interesting product or service to pilots, flight crews, aircraft, or users of the Bussen Airport, you should consider listing it here.  To start the listing process, click on the button below
 
Add a business
 

Other Pages about Bussen Airport

Update a link
 
Copyright © AirNav, LLC. All rights reserved. Privacy Policy  Contact